sensor_id;sensor_type;location;lat;lon;timestamp;P1;durP1;ratioP1;P2;durP2;ratioP2
18090;SDS011;9172;49.948;9.208;2023-10-19T00:00:54;4.30;;;2.80;;
18090;SDS011;9172;49.948;9.208;2023-10-19T00:03:24;4.27;;;2.47;;
18090;SDS011;9172;49.948;9.208;2023-10-19T00:05:55;8.63;;;2.93;;
18090;SDS011;9172;49.948;9.208;2023-10-19T00:08:24;4.43;;;3.30;;
18090;SDS011;9172;49.948;9.208;2023-10-19T00:10:54;4.50;;;3.13;;
18090;SDS011;9172;49.948;9.208;2023-10-19T00:13:29;4.73;;;3.27;;
18090;SDS011;9172;49.948;9.208;2023-10-19T00:15:57;3.87;;;2.97;;
18090;SDS011;9172;49.948;9.208;2023-10-19T00:18:26;7.20;;;3.50;;
18090;SDS011;9172;49.948;9.208;2023-10-19T00:20:57;7.07;;;3.40;;
18090;SDS011;9172;49.948;9.208;2023-10-19T00:23:28;5.60;;;3.87;;
18090;SDS011;9172;49.948;9.208;2023-10-19T00:25:58;4.57;;;3.33;;
18090;SDS011;9172;49.948;9.208;2023-10-19T00:28:29;9.30;;;4.27;;
18090;SDS011;9172;49.948;9.208;2023-10-19T00:31:00;8.80;;;4.13;;
18090;SDS011;9172;49.948;9.208;2023-10-19T00:33:32;7.00;;;3.80;;
18090;SDS011;9172;49.948;9.208;2023-10-19T00:36:02;7.10;;;3.90;;
18090;SDS011;9172;49.948;9.208;2023-10-19T00:38:33;6.77;;;3.87;;
18090;SDS011;9172;49.948;9.208;2023-10-19T00:41:17;6.67;;;4.03;;
18090;SDS011;9172;49.948;9.208;2023-10-19T00:43:48;6.63;;;4.17;;
18090;SDS011;9172;49.948;9.208;2023-10-19T00:46:19;8.30;;;4.83;;
18090;SDS011;9172;49.948;9.208;2023-10-19T00:48:48;5.30;;;3.53;;
18090;SDS011;9172;49.948;9.208;2023-10-19T00:51:20;6.70;;;4.53;;
18090;SDS011;9172;49.948;9.208;2023-10-19T00:53:56;9.00;;;4.40;;
18090;SDS011;9172;49.948;9.208;2023-10-19T00:56:28;6.17;;;3.80;;
18090;SDS011;9172;49.948;9.208;2023-10-19T00:58:58;6.03;;;3.93;;
18090;SDS011;9172;49.948;9.208;2023-10-19T01:01:32;5.93;;;4.20;;
18090;SDS011;9172;49.948;9.208;2023-10-19T01:04:04;7.77;;;4.23;;
18090;SDS011;9172;49.948;9.208;2023-10-19T01:06:33;6.70;;;4.00;;
18090;SDS011;9172;49.948;9.208;2023-10-19T01:09:02;5.90;;;3.60;;
18090;SDS011;9172;49.948;9.208;2023-10-19T01:11:31;5.87;;;4.07;;
18090;SDS011;9172;49.948;9.208;2023-10-19T01:14:07;5.53;;;3.97;;
18090;SDS011;9172;49.948;9.208;2023-10-19T01:16:47;6.60;;;3.97;;
18090;SDS011;9172;49.948;9.208;2023-10-19T01:19:16;6.67;;;4.43;;
18090;SDS011;9172;49.948;9.208;2023-10-19T01:21:46;6.43;;;4.23;;
18090;SDS011;9172;49.948;9.208;2023-10-19T01:24:18;5.97;;;3.70;;
18090;SDS011;9172;49.948;9.208;2023-10-19T01:26:50;6.17;;;3.97;;
18090;SDS011;9172;49.948;9.208;2023-10-19T01:29:21;5.10;;;3.60;;
18090;SDS011;9172;49.948;9.208;2023-10-19T01:31:53;6.53;;;4.40;;
18090;SDS011;9172;49.948;9.208;2023-10-19T01:34:24;8.13;;;4.07;;
18090;SDS011;9172;49.948;9.208;2023-10-19T01:36:54;5.97;;;4.10;;
18090;SDS011;9172;49.948;9.208;2023-10-19T01:39:22;6.37;;;3.70;;
18090;SDS011;9172;49.948;9.208;2023-10-19T01:41:51;6.33;;;3.67;;
18090;SDS011;9172;49.948;9.208;2023-10-19T01:44:20;5.80;;;3.40;;
18090;SDS011;9172;49.948;9.208;2023-10-19T01:46:50;7.07;;;3.50;;
18090;SDS011;9172;49.948;9.208;2023-10-19T01:49:19;5.80;;;3.47;;
18090;SDS011;9172;49.948;9.208;2023-10-19T01:51:52;6.43;;;2.87;;
18090;SDS011;9172;49.948;9.208;2023-10-19T01:54:21;5.60;;;3.53;;
18090;SDS011;9172;49.948;9.208;2023-10-19T01:56:51;4.50;;;2.90;;
18090;SDS011;9172;49.948;9.208;2023-10-19T01:59:23;5.30;;;3.80;;
18090;SDS011;9172;49.948;9.208;2023-10-19T02:01:53;7.37;;;4.00;;
18090;SDS011;9172;49.948;9.208;2023-10-19T02:04:23;5.27;;;3.67;;
18090;SDS011;9172;49.948;9.208;2023-10-19T02:06:52;6.60;;;3.73;;
18090;SDS011;9172;49.948;9.208;2023-10-19T02:09:22;5.13;;;3.50;;
18090;SDS011;9172;49.948;9.208;2023-10-19T02:11:53;5.20;;;3.57;;
18090;SDS011;9172;49.948;9.208;2023-10-19T02:14:23;5.27;;;3.90;;
18090;SDS011;9172;49.948;9.208;2023-10-19T02:16:53;5.93;;;3.90;;
18090;SDS011;9172;49.948;9.208;2023-10-19T02:19:24;5.17;;;3.43;;
18090;SDS011;9172;49.948;9.208;2023-10-19T02:21:54;4.73;;;3.37;;
18090;SDS011;9172;49.948;9.208;2023-10-19T02:24:24;4.30;;;3.37;;
18090;SDS011;9172;49.948;9.208;2023-10-19T02:26:53;5.07;;;3.03;;
18090;SDS011;9172;49.948;9.208;2023-10-19T02:29:22;5.70;;;3.77;;
18090;SDS011;9172;49.948;9.208;2023-10-19T02:31:52;5.00;;;3.50;;
18090;SDS011;9172;49.948;9.208;2023-10-19T02:34:22;9.80;;;4.20;;
18090;SDS011;9172;49.948;9.208;2023-10-19T02:36:51;4.53;;;3.33;;
18090;SDS011;9172;49.948;9.208;2023-10-19T02:39:20;5.50;;;3.67;;
18090;SDS011;9172;49.948;9.208;2023-10-19T02:41:50;7.80;;;3.97;;
18090;SDS011;9172;49.948;9.208;2023-10-19T02:44:20;8.17;;;3.53;;
18090;SDS011;9172;49.948;9.208;2023-10-19T02:46:50;4.57;;;3.40;;
18090;SDS011;9172;49.948;9.208;2023-10-19T02:49:21;7.33;;;3.40;;
18090;SDS011;9172;49.948;9.208;2023-10-19T02:51:52;6.80;;;3.90;;
18090;SDS011;9172;49.948;9.208;2023-10-19T02:54:21;10.77;;;3.97;;
18090;SDS011;9172;49.948;9.208;2023-10-19T02:56:54;9.03;;;4.37;;
18090;SDS011;9172;49.948;9.208;2023-10-19T02:59:26;4.57;;;3.63;;
18090;SDS011;9172;49.948;9.208;2023-10-19T03:01:57;5.77;;;3.57;;
18090;SDS011;9172;49.948;9.208;2023-10-19T03:04:34;8.00;;;4.03;;
18090;SDS011;9172;49.948;9.208;2023-10-19T03:07:03;6.50;;;3.90;;
18090;SDS011;9172;49.948;9.208;2023-10-19T03:09:32;7.13;;;4.37;;
18090;SDS011;9172;49.948;9.208;2023-10-19T03:12:02;5.83;;;3.87;;
18090;SDS011;9172;49.948;9.208;2023-10-19T03:14:33;5.60;;;3.90;;
18090;SDS011;9172;49.948;9.208;2023-10-19T03:17:03;6.43;;;3.80;;
18090;SDS011;9172;49.948;9.208;2023-10-19T03:19:34;5.77;;;3.80;;
18090;SDS011;9172;49.948;9.208;2023-10-19T03:22:03;6.40;;;4.17;;
18090;SDS011;9172;49.948;9.208;2023-10-19T03:24:32;7.40;;;3.90;;
18090;SDS011;9172;49.948;9.208;2023-10-19T03:27:09;5.77;;;3.63;;
18090;SDS011;9172;49.948;9.208;2023-10-19T03:29:41;6.47;;;4.37;;
18090;SDS011;9172;49.948;9.208;2023-10-19T03:32:13;5.93;;;4.20;;
18090;SDS011;9172;49.948;9.208;2023-10-19T03:34:42;10.63;;;4.07;;
18090;SDS011;9172;49.948;9.208;2023-10-19T03:37:14;6.77;;;3.60;;
18090;SDS011;9172;49.948;9.208;2023-10-19T03:39:44;7.10;;;4.13;;
18090;SDS011;9172;49.948;9.208;2023-10-19T03:42:13;6.27;;;4.23;;
18090;SDS011;9172;49.948;9.208;2023-10-19T03:44:42;6.07;;;4.07;;
18090;SDS011;9172;49.948;9.208;2023-10-19T03:47:12;10.37;;;4.10;;
18090;SDS011;9172;49.948;9.208;2023-10-19T03:49:43;6.23;;;3.83;;
18090;SDS011;9172;49.948;9.208;2023-10-19T03:52:13;6.67;;;3.70;;
18090;SDS011;9172;49.948;9.208;2023-10-19T03:54:47;7.60;;;4.50;;
18090;SDS011;9172;49.948;9.208;2023-10-19T03:57:17;6.93;;;4.47;;
18090;SDS011;9172;49.948;9.208;2023-10-19T03:59:48;7.93;;;4.43;;
18090;SDS011;9172;49.948;9.208;2023-10-19T04:02:19;9.10;;;4.60;;
18090;SDS011;9172;49.948;9.208;2023-10-19T04:04:47;7.07;;;4.37;;
18090;SDS011;9172;49.948;9.208;2023-10-19T04:07:16;8.93;;;4.60;;
18090;SDS011;9172;49.948;9.208;2023-10-19T04:09:48;9.17;;;4.30;;
18090;SDS011;9172;49.948;9.208;2023-10-19T04:12:28;9.40;;;4.77;;
18090;SDS011;9172;49.948;9.208;2023-10-19T04:14:58;10.20;;;5.07;;
18090;SDS011;9172;49.948;9.208;2023-10-19T04:17:32;9.03;;;4.60;;
18090;SDS011;9172;49.948;9.208;2023-10-19T04:20:02;7.13;;;4.70;;
18090;SDS011;9172;49.948;9.208;2023-10-19T04:22:35;14.03;;;5.20;;
18090;SDS011;9172;49.948;9.208;2023-10-19T04:25:05;9.33;;;4.47;;
18090;SDS011;9172;49.948;9.208;2023-10-19T04:27:37;7.43;;;5.27;;
18090;SDS011;9172;49.948;9.208;2023-10-19T04:30:08;7.30;;;4.83;;
18090;SDS011;9172;49.948;9.208;2023-10-19T04:32:42;8.73;;;5.30;;
18090;SDS011;9172;49.948;9.208;2023-10-19T04:35:11;6.47;;;4.57;;
18090;SDS011;9172;49.948;9.208;2023-10-19T04:37:41;9.23;;;4.77;;
18090;SDS011;9172;49.948;9.208;2023-10-19T04:40:11;7.43;;;4.80;;
18090;SDS011;9172;49.948;9.208;2023-10-19T04:42:40;9.73;;;5.13;;
18090;SDS011;9172;49.948;9.208;2023-10-19T04:45:09;7.10;;;4.60;;
18090;SDS011;9172;49.948;9.208;2023-10-19T04:47:39;7.70;;;4.67;;
18090;SDS011;9172;49.948;9.208;2023-10-19T04:50:08;13.23;;;5.13;;
18090;SDS011;9172;49.948;9.208;2023-10-19T04:52:38;12.33;;;5.80;;
18090;SDS011;9172;49.948;9.208;2023-10-19T04:55:07;10.77;;;5.87;;
18090;SDS011;9172;49.948;9.208;2023-10-19T04:57:36;9.50;;;5.30;;
18090;SDS011;9172;49.948;9.208;2023-10-19T05:00:06;9.60;;;5.50;;
18090;SDS011;9172;49.948;9.208;2023-10-19T05:02:44;11.50;;;5.20;;
18090;SDS011;9172;49.948;9.208;2023-10-19T05:05:12;10.83;;;5.10;;
18090;SDS011;9172;49.948;9.208;2023-10-19T05:07:43;9.07;;;5.30;;
18090;SDS011;9172;49.948;9.208;2023-10-19T05:10:12;6.73;;;4.97;;
18090;SDS011;9172;49.948;9.208;2023-10-19T05:12:41;11.33;;;4.97;;
18090;SDS011;9172;49.948;9.208;2023-10-19T05:15:10;10.10;;;5.33;;
18090;SDS011;9172;49.948;9.208;2023-10-19T05:17:39;7.47;;;4.57;;
18090;SDS011;9172;49.948;9.208;2023-10-19T05:20:08;10.03;;;5.23;;
18090;SDS011;9172;49.948;9.208;2023-10-19T05:22:38;11.37;;;5.53;;
18090;SDS011;9172;49.948;9.208;2023-10-19T05:25:07;10.47;;;5.03;;
18090;SDS011;9172;49.948;9.208;2023-10-19T05:27:36;9.57;;;5.20;;
18090;SDS011;9172;49.948;9.208;2023-10-19T05:30:07;7.80;;;4.57;;
18090;SDS011;9172;49.948;9.208;2023-10-19T05:32:36;8.40;;;4.43;;
18090;SDS011;9172;49.948;9.208;2023-10-19T05:35:05;10.27;;;4.67;;
18090;SDS011;9172;49.948;9.208;2023-10-19T05:37:36;12.00;;;4.27;;
18090;SDS011;9172;49.948;9.208;2023-10-19T05:40:06;8.50;;;4.47;;
18090;SDS011;9172;49.948;9.208;2023-10-19T05:42:38;7.87;;;4.30;;
18090;SDS011;9172;49.948;9.208;2023-10-19T05:45:07;7.27;;;4.00;;
18090;SDS011;9172;49.948;9.208;2023-10-19T05:47:38;7.47;;;3.67;;
18090;SDS011;9172;49.948;9.208;2023-10-19T05:50:07;6.93;;;4.03;;
18090;SDS011;9172;49.948;9.208;2023-10-19T05:52:36;7.27;;;4.27;;
18090;SDS011;9172;49.948;9.208;2023-10-19T05:55:07;10.90;;;4.60;;
18090;SDS011;9172;49.948;9.208;2023-10-19T05:57:36;9.37;;;5.07;;
18090;SDS011;9172;49.948;9.208;2023-10-19T06:00:10;10.73;;;5.20;;
18090;SDS011;9172;49.948;9.208;2023-10-19T06:02:40;9.20;;;4.83;;
18090;SDS011;9172;49.948;9.208;2023-10-19T06:05:10;8.83;;;5.53;;
18090;SDS011;9172;49.948;9.208;2023-10-19T06:07:41;10.33;;;4.97;;
18090;SDS011;9172;49.948;9.208;2023-10-19T06:10:11;14.23;;;6.17;;
18090;SDS011;9172;49.948;9.208;2023-10-19T06:12:42;8.07;;;5.27;;
18090;SDS011;9172;49.948;9.208;2023-10-19T06:15:12;11.60;;;5.33;;
18090;SDS011;9172;49.948;9.208;2023-10-19T06:17:41;7.07;;;4.93;;
18090;SDS011;9172;49.948;9.208;2023-10-19T06:20:12;8.80;;;4.80;;
18090;SDS011;9172;49.948;9.208;2023-10-19T06:22:48;8.17;;;5.10;;
18090;SDS011;9172;49.948;9.208;2023-10-19T06:25:18;7.67;;;4.57;;
18090;SDS011;9172;49.948;9.208;2023-10-19T06:27:48;7.30;;;4.57;;
18090;SDS011;9172;49.948;9.208;2023-10-19T06:30:28;7.33;;;4.40;;
18090;SDS011;9172;49.948;9.208;2023-10-19T06:32:57;9.47;;;5.03;;
18090;SDS011;9172;49.948;9.208;2023-10-19T06:35:27;16.17;;;7.30;;
18090;SDS011;9172;49.948;9.208;2023-10-19T06:37:58;11.70;;;6.13;;
18090;SDS011;9172;49.948;9.208;2023-10-19T06:40:27;10.83;;;5.90;;
18090;SDS011;9172;49.948;9.208;2023-10-19T06:42:56;11.07;;;5.80;;
18090;SDS011;9172;49.948;9.208;2023-10-19T06:45:25;10.30;;;4.77;;
18090;SDS011;9172;49.948;9.208;2023-10-19T06:47:56;8.67;;;5.07;;
18090;SDS011;9172;49.948;9.208;2023-10-19T06:50:26;8.47;;;4.83;;
18090;SDS011;9172;49.948;9.208;2023-10-19T06:52:55;8.53;;;5.50;;
18090;SDS011;9172;49.948;9.208;2023-10-19T06:55:24;8.80;;;5.53;;
18090;SDS011;9172;49.948;9.208;2023-10-19T06:57:54;11.10;;;5.00;;
18090;SDS011;9172;49.948;9.208;2023-10-19T07:00:23;9.23;;;5.23;;
18090;SDS011;9172;49.948;9.208;2023-10-19T07:02:53;11.23;;;5.20;;
18090;SDS011;9172;49.948;9.208;2023-10-19T07:05:23;9.13;;;4.67;;
18090;SDS011;9172;49.948;9.208;2023-10-19T07:07:52;8.57;;;4.97;;
18090;SDS011;9172;49.948;9.208;2023-10-19T07:10:23;7.20;;;4.50;;
18090;SDS011;9172;49.948;9.208;2023-10-19T07:12:54;13.00;;;5.00;;
18090;SDS011;9172;49.948;9.208;2023-10-19T07:15:24;10.50;;;5.03;;
18090;SDS011;9172;49.948;9.208;2023-10-19T07:17:54;11.07;;;4.27;;
18090;SDS011;9172;49.948;9.208;2023-10-19T07:20:23;7.13;;;4.20;;
18090;SDS011;9172;49.948;9.208;2023-10-19T07:22:57;5.90;;;3.87;;
18090;SDS011;9172;49.948;9.208;2023-10-19T07:25:29;6.00;;;3.83;;
18090;SDS011;9172;49.948;9.208;2023-10-19T07:27:57;6.13;;;3.60;;
18090;SDS011;9172;49.948;9.208;2023-10-19T07:30:26;5.93;;;3.43;;
18090;SDS011;9172;49.948;9.208;2023-10-19T07:32:56;8.93;;;4.37;;
18090;SDS011;9172;49.948;9.208;2023-10-19T07:35:25;7.77;;;3.70;;
18090;SDS011;9172;49.948;9.208;2023-10-19T07:37:55;4.23;;;2.83;;
18090;SDS011;9172;49.948;9.208;2023-10-19T07:40:24;3.60;;;2.70;;
18090;SDS011;9172;49.948;9.208;2023-10-19T07:42:52;5.53;;;2.90;;
18090;SDS011;9172;49.948;9.208;2023-10-19T07:45:21;7.00;;;3.37;;
18090;SDS011;9172;49.948;9.208;2023-10-19T07:47:52;7.07;;;2.70;;
18090;SDS011;9172;49.948;9.208;2023-10-19T07:50:21;3.17;;;2.23;;
18090;SDS011;9172;49.948;9.208;2023-10-19T07:52:50;4.77;;;2.30;;
18090;SDS011;9172;49.948;9.208;2023-10-19T07:55:20;5.53;;;2.20;;
18090;SDS011;9172;49.948;9.208;2023-10-19T07:57:50;8.50;;;2.93;;
18090;SDS011;9172;49.948;9.208;2023-10-19T08:00:19;5.60;;;2.27;;
18090;SDS011;9172;49.948;9.208;2023-10-19T08:02:49;4.77;;;2.43;;
18090;SDS011;9172;49.948;9.208;2023-10-19T08:05:20;7.57;;;2.40;;
18090;SDS011;9172;49.948;9.208;2023-10-19T08:07:48;4.97;;;2.37;;
18090;SDS011;9172;49.948;9.208;2023-10-19T08:10:17;13.00;;;2.40;;
18090;SDS011;9172;49.948;9.208;2023-10-19T08:12:47;3.97;;;2.30;;
18090;SDS011;9172;49.948;9.208;2023-10-19T08:15:17;10.27;;;3.67;;
18090;SDS011;9172;49.948;9.208;2023-10-19T08:17:47;5.07;;;2.20;;
18090;SDS011;9172;49.948;9.208;2023-10-19T08:20:17;5.23;;;2.53;;
18090;SDS011;9172;49.948;9.208;2023-10-19T08:22:50;7.60;;;3.50;;
18090;SDS011;9172;49.948;9.208;2023-10-19T08:25:19;9.33;;;3.60;;
18090;SDS011;9172;49.948;9.208;2023-10-19T08:27:48;4.47;;;2.23;;
18090;SDS011;9172;49.948;9.208;2023-10-19T08:30:18;5.13;;;2.50;;
18090;SDS011;9172;49.948;9.208;2023-10-19T08:32:48;5.17;;;1.97;;
18090;SDS011;9172;49.948;9.208;2023-10-19T08:35:19;5.20;;;1.80;;
18090;SDS011;9172;49.948;9.208;2023-10-19T08:37:49;2.50;;;1.70;;
18090;SDS011;9172;49.948;9.208;2023-10-19T08:40:19;5.73;;;1.70;;
18090;SDS011;9172;49.948;9.208;2023-10-19T08:42:49;5.70;;;1.50;;
18090;SDS011;9172;49.948;9.208;2023-10-19T08:45:19;4.27;;;2.40;;
18090;SDS011;9172;49.948;9.208;2023-10-19T08:47:48;8.80;;;3.13;;
18090;SDS011;9172;49.948;9.208;2023-10-19T08:50:19;9.27;;;2.93;;
18090;SDS011;9172;49.948;9.208;2023-10-19T08:52:50;4.57;;;2.00;;
18090;SDS011;9172;49.948;9.208;2023-10-19T08:55:21;4.80;;;2.00;;
18090;SDS011;9172;49.948;9.208;2023-10-19T08:57:50;3.70;;;2.00;;
18090;SDS011;9172;49.948;9.208;2023-10-19T09:00:19;5.27;;;2.10;;
18090;SDS011;9172;49.948;9.208;2023-10-19T09:02:50;3.03;;;1.97;;
18090;SDS011;9172;49.948;9.208;2023-10-19T09:05:19;5.40;;;2.00;;
18090;SDS011;9172;49.948;9.208;2023-10-19T09:07:49;2.87;;;1.37;;
18090;SDS011;9172;49.948;9.208;2023-10-19T09:10:20;8.00;;;2.17;;
18090;SDS011;9172;49.948;9.208;2023-10-19T09:12:58;4.10;;;1.53;;
18090;SDS011;9172;49.948;9.208;2023-10-19T09:15:28;5.83;;;1.77;;
18090;SDS011;9172;49.948;9.208;2023-10-19T09:17:59;4.97;;;2.07;;
18090;SDS011;9172;49.948;9.208;2023-10-19T09:20:51;6.37;;;2.93;;
18090;SDS011;9172;49.948;9.208;2023-10-19T09:23:20;5.37;;;2.13;;
18090;SDS011;9172;49.948;9.208;2023-10-19T09:25:50;3.00;;;1.60;;
18090;SDS011;9172;49.948;9.208;2023-10-19T09:28:19;4.70;;;1.50;;
18090;SDS011;9172;49.948;9.208;2023-10-19T09:30:50;3.97;;;1.90;;
18090;SDS011;9172;49.948;9.208;2023-10-19T09:33:19;5.23;;;2.60;;
18090;SDS011;9172;49.948;9.208;2023-10-19T09:35:50;4.73;;;1.47;;
18090;SDS011;9172;49.948;9.208;2023-10-19T09:38:20;5.10;;;1.60;;
18090;SDS011;9172;49.948;9.208;2023-10-19T09:40:51;5.50;;;2.00;;
18090;SDS011;9172;49.948;9.208;2023-10-19T09:43:22;7.87;;;2.70;;
18090;SDS011;9172;49.948;9.208;2023-10-19T09:46:09;3.47;;;1.70;;
18090;SDS011;9172;49.948;9.208;2023-10-19T09:48:39;5.90;;;1.80;;
18090;SDS011;9172;49.948;9.208;2023-10-19T09:51:10;6.00;;;2.47;;
18090;SDS011;9172;49.948;9.208;2023-10-19T09:53:39;4.13;;;2.23;;
18090;SDS011;9172;49.948;9.208;2023-10-19T09:56:10;7.43;;;2.10;;
18090;SDS011;9172;49.948;9.208;2023-10-19T09:58:52;6.90;;;1.73;;
18090;SDS011;9172;49.948;9.208;2023-10-19T10:01:23;4.90;;;1.73;;
18090;SDS011;9172;49.948;9.208;2023-10-19T10:03:52;5.57;;;2.10;;
18090;SDS011;9172;49.948;9.208;2023-10-19T10:06:27;3.40;;;1.90;;
18090;SDS011;9172;49.948;9.208;2023-10-19T10:08:57;4.53;;;1.50;;
18090;SDS011;9172;49.948;9.208;2023-10-19T10:11:29;5.33;;;1.70;;
18090;SDS011;9172;49.948;9.208;2023-10-19T10:13:58;5.77;;;1.73;;
18090;SDS011;9172;49.948;9.208;2023-10-19T10:16:27;6.53;;;1.90;;
18090;SDS011;9172;49.948;9.208;2023-10-19T10:18:56;4.67;;;2.17;;
18090;SDS011;9172;49.948;9.208;2023-10-19T10:21:26;6.03;;;2.00;;
18090;SDS011;9172;49.948;9.208;2023-10-19T10:23:57;2.90;;;1.63;;
18090;SDS011;9172;49.948;9.208;2023-10-19T10:26:27;5.37;;;1.87;;
18090;SDS011;9172;49.948;9.208;2023-10-19T10:29:09;7.70;;;3.60;;
18090;SDS011;9172;49.948;9.208;2023-10-19T10:31:43;10.00;;;1.77;;
18090;SDS011;9172;49.948;9.208;2023-10-19T10:34:41;5.70;;;1.37;;
18090;SDS011;9172;49.948;9.208;2023-10-19T10:37:13;6.13;;;1.60;;
18090;SDS011;9172;49.948;9.208;2023-10-19T10:39:41;3.93;;;1.40;;
18090;SDS011;9172;49.948;9.208;2023-10-19T10:42:11;6.63;;;2.20;;
18090;SDS011;9172;49.948;9.208;2023-10-19T10:44:41;4.27;;;2.30;;
18090;SDS011;9172;49.948;9.208;2023-10-19T10:47:11;6.63;;;2.03;;
18090;SDS011;9172;49.948;9.208;2023-10-19T10:49:52;7.17;;;1.57;;
18090;SDS011;9172;49.948;9.208;2023-10-19T10:52:28;3.37;;;1.20;;
18090;SDS011;9172;49.948;9.208;2023-10-19T10:54:59;3.60;;;1.60;;
18090;SDS011;9172;49.948;9.208;2023-10-19T10:57:36;3.87;;;1.20;;
18090;SDS011;9172;49.948;9.208;2023-10-19T11:00:06;4.13;;;1.30;;
18090;SDS011;9172;49.948;9.208;2023-10-19T11:02:39;4.67;;;1.70;;
18090;SDS011;9172;49.948;9.208;2023-10-19T11:05:10;6.17;;;1.80;;
18090;SDS011;9172;49.948;9.208;2023-10-19T11:07:39;4.43;;;1.53;;
18090;SDS011;9172;49.948;9.208;2023-10-19T11:10:08;5.87;;;1.97;;
18090;SDS011;9172;49.948;9.208;2023-10-19T11:12:37;4.00;;;1.80;;
18090;SDS011;9172;49.948;9.208;2023-10-19T11:15:06;4.63;;;1.63;;
18090;SDS011;9172;49.948;9.208;2023-10-19T11:17:42;4.93;;;1.73;;
18090;SDS011;9172;49.948;9.208;2023-10-19T11:20:20;3.77;;;1.67;;
18090;SDS011;9172;49.948;9.208;2023-10-19T11:22:49;8.00;;;1.87;;
18090;SDS011;9172;49.948;9.208;2023-10-19T11:25:20;3.60;;;1.80;;
18090;SDS011;9172;49.948;9.208;2023-10-19T11:27:50;2.53;;;1.40;;
18090;SDS011;9172;49.948;9.208;2023-10-19T11:30:23;2.27;;;1.40;;
18090;SDS011;9172;49.948;9.208;2023-10-19T11:32:53;2.90;;;1.60;;
18090;SDS011;9172;49.948;9.208;2023-10-19T11:35:27;3.50;;;1.70;;
18090;SDS011;9172;49.948;9.208;2023-10-19T11:37:57;5.73;;;2.13;;
18090;SDS011;9172;49.948;9.208;2023-10-19T11:40:28;2.67;;;1.50;;
18090;SDS011;9172;49.948;9.208;2023-10-19T11:42:57;3.10;;;1.27;;
18090;SDS011;9172;49.948;9.208;2023-10-19T11:45:27;5.60;;;1.50;;
18090;SDS011;9172;49.948;9.208;2023-10-19T11:47:55;4.93;;;1.73;;
18090;SDS011;9172;49.948;9.208;2023-10-19T11:50:24;2.83;;;1.47;;
18090;SDS011;9172;49.948;9.208;2023-10-19T11:52:53;3.43;;;1.50;;
18090;SDS011;9172;49.948;9.208;2023-10-19T11:55:22;4.87;;;1.80;;
18090;SDS011;9172;49.948;9.208;2023-10-19T11:57:51;2.97;;;1.30;;
18090;SDS011;9172;49.948;9.208;2023-10-19T12:00:20;4.83;;;1.60;;
18090;SDS011;9172;49.948;9.208;2023-10-19T12:02:50;3.10;;;1.43;;
18090;SDS011;9172;49.948;9.208;2023-10-19T12:05:19;2.50;;;1.40;;
18090;SDS011;9172;49.948;9.208;2023-10-19T12:07:49;2.80;;;1.50;;
18090;SDS011;9172;49.948;9.208;2023-10-19T12:10:18;2.47;;;1.53;;
18090;SDS011;9172;49.948;9.208;2023-10-19T12:12:48;4.50;;;1.90;;
18090;SDS011;9172;49.948;9.208;2023-10-19T12:15:17;7.20;;;2.20;;
18090;SDS011;9172;49.948;9.208;2023-10-19T12:17:47;5.00;;;2.10;;
18090;SDS011;9172;49.948;9.208;2023-10-19T12:20:16;4.23;;;1.73;;
18090;SDS011;9172;49.948;9.208;2023-10-19T12:22:47;3.77;;;1.70;;
18090;SDS011;9172;49.948;9.208;2023-10-19T12:25:17;4.37;;;2.17;;
18090;SDS011;9172;49.948;9.208;2023-10-19T12:27:45;5.43;;;2.40;;
18090;SDS011;9172;49.948;9.208;2023-10-19T12:30:15;3.63;;;1.70;;
18090;SDS011;9172;49.948;9.208;2023-10-19T12:32:45;6.63;;;2.70;;
18090;SDS011;9172;49.948;9.208;2023-10-19T12:35:15;8.00;;;2.90;;
18090;SDS011;9172;49.948;9.208;2023-10-19T12:37:46;5.40;;;2.00;;
18090;SDS011;9172;49.948;9.208;2023-10-19T12:40:16;3.57;;;1.40;;
18090;SDS011;9172;49.948;9.208;2023-10-19T12:42:55;2.83;;;1.60;;
18090;SDS011;9172;49.948;9.208;2023-10-19T12:45:26;3.40;;;1.50;;
18090;SDS011;9172;49.948;9.208;2023-10-19T12:47:54;2.70;;;1.70;;
18090;SDS011;9172;49.948;9.208;2023-10-19T12:50:23;4.17;;;1.70;;
18090;SDS011;9172;49.948;9.208;2023-10-19T12:52:51;6.33;;;1.67;;
18090;SDS011;9172;49.948;9.208;2023-10-19T12:55:21;3.77;;;1.50;;
18090;SDS011;9172;49.948;9.208;2023-10-19T12:57:52;8.97;;;2.20;;
18090;SDS011;9172;49.948;9.208;2023-10-19T13:00:23;3.90;;;2.13;;
18090;SDS011;9172;49.948;9.208;2023-10-19T13:02:54;4.43;;;1.63;;
18090;SDS011;9172;49.948;9.208;2023-10-19T13:05:27;3.53;;;1.67;;
18090;SDS011;9172;49.948;9.208;2023-10-19T13:07:57;3.57;;;1.73;;
18090;SDS011;9172;49.948;9.208;2023-10-19T13:10:29;3.90;;;1.70;;
18090;SDS011;9172;49.948;9.208;2023-10-19T13:13:02;3.47;;;1.73;;
18090;SDS011;9172;49.948;9.208;2023-10-19T13:15:32;2.77;;;1.73;;
18090;SDS011;9172;49.948;9.208;2023-10-19T13:18:02;3.87;;;1.77;;
18090;SDS011;9172;49.948;9.208;2023-10-19T13:20:35;2.70;;;1.83;;
18090;SDS011;9172;49.948;9.208;2023-10-19T13:23:05;2.90;;;1.90;;
18090;SDS011;9172;49.948;9.208;2023-10-19T13:25:36;3.30;;;1.73;;
18090;SDS011;9172;49.948;9.208;2023-10-19T13:28:08;6.43;;;2.17;;
18090;SDS011;9172;49.948;9.208;2023-10-19T13:30:37;5.20;;;1.73;;
18090;SDS011;9172;49.948;9.208;2023-10-19T13:33:08;3.43;;;2.03;;
18090;SDS011;9172;49.948;9.208;2023-10-19T13:35:37;5.27;;;2.03;;
18090;SDS011;9172;49.948;9.208;2023-10-19T13:38:07;3.27;;;1.80;;
18090;SDS011;9172;49.948;9.208;2023-10-19T13:40:37;3.37;;;1.80;;
18090;SDS011;9172;49.948;9.208;2023-10-19T13:43:08;3.03;;;1.73;;
18090;SDS011;9172;49.948;9.208;2023-10-19T13:45:38;5.60;;;1.93;;
18090;SDS011;9172;49.948;9.208;2023-10-19T13:48:09;2.73;;;1.60;;
18090;SDS011;9172;49.948;9.208;2023-10-19T13:50:41;2.97;;;1.90;;
18090;SDS011;9172;49.948;9.208;2023-10-19T13:53:14;3.60;;;1.90;;
18090;SDS011;9172;49.948;9.208;2023-10-19T13:55:43;10.30;;;2.20;;
18090;SDS011;9172;49.948;9.208;2023-10-19T13:58:12;4.10;;;1.70;;
18090;SDS011;9172;49.948;9.208;2023-10-19T14:00:41;5.73;;;2.07;;
18090;SDS011;9172;49.948;9.208;2023-10-19T14:03:11;8.07;;;2.57;;
18090;SDS011;9172;49.948;9.208;2023-10-19T14:05:40;3.70;;;1.90;;
18090;SDS011;9172;49.948;9.208;2023-10-19T14:08:11;2.40;;;1.93;;
18090;SDS011;9172;49.948;9.208;2023-10-19T14:10:41;3.27;;;1.80;;
18090;SDS011;9172;49.948;9.208;2023-10-19T14:13:10;5.80;;;1.60;;
18090;SDS011;9172;49.948;9.208;2023-10-19T14:15:38;2.97;;;1.67;;
18090;SDS011;9172;49.948;9.208;2023-10-19T14:18:08;4.20;;;1.80;;
18090;SDS011;9172;49.948;9.208;2023-10-19T14:20:37;2.80;;;1.23;;
18090;SDS011;9172;49.948;9.208;2023-10-19T14:23:06;3.10;;;2.00;;
18090;SDS011;9172;49.948;9.208;2023-10-19T14:25:36;7.20;;;2.60;;
18090;SDS011;9172;49.948;9.208;2023-10-19T14:28:06;2.00;;;1.60;;
18090;SDS011;9172;49.948;9.208;2023-10-19T14:30:36;5.23;;;1.40;;
18090;SDS011;9172;49.948;9.208;2023-10-19T14:33:04;3.40;;;1.80;;
18090;SDS011;9172;49.948;9.208;2023-10-19T14:35:35;4.93;;;1.67;;
18090;SDS011;9172;49.948;9.208;2023-10-19T14:38:07;4.40;;;1.67;;
18090;SDS011;9172;49.948;9.208;2023-10-19T14:40:37;2.50;;;1.63;;
18090;SDS011;9172;49.948;9.208;2023-10-19T14:43:10;3.17;;;1.60;;
18090;SDS011;9172;49.948;9.208;2023-10-19T14:45:40;3.33;;;1.73;;
18090;SDS011;9172;49.948;9.208;2023-10-19T14:48:09;4.67;;;2.03;;
18090;SDS011;9172;49.948;9.208;2023-10-19T14:50:38;4.93;;;1.83;;
18090;SDS011;9172;49.948;9.208;2023-10-19T14:53:08;3.70;;;1.97;;
18090;SDS011;9172;49.948;9.208;2023-10-19T14:55:36;3.43;;;1.87;;
18090;SDS011;9172;49.948;9.208;2023-10-19T14:58:05;3.43;;;1.50;;
18090;SDS011;9172;49.948;9.208;2023-10-19T15:00:33;3.70;;;1.70;;
18090;SDS011;9172;49.948;9.208;2023-10-19T15:03:04;5.60;;;1.70;;
18090;SDS011;9172;49.948;9.208;2023-10-19T15:05:34;3.40;;;1.57;;
18090;SDS011;9172;49.948;9.208;2023-10-19T15:08:04;5.23;;;1.70;;
18090;SDS011;9172;49.948;9.208;2023-10-19T15:10:34;3.93;;;1.40;;
18090;SDS011;9172;49.948;9.208;2023-10-19T15:13:03;4.93;;;1.80;;
18090;SDS011;9172;49.948;9.208;2023-10-19T15:15:32;7.30;;;1.47;;
18090;SDS011;9172;49.948;9.208;2023-10-19T15:18:00;4.97;;;1.90;;
18090;SDS011;9172;49.948;9.208;2023-10-19T15:20:30;3.40;;;1.70;;